Time;durP1;ratioP1;P1;durP2;ratioP2;P2;SDS_P1;SDS_P2;PMS_P1;PMS_P2;Temp;Humidity;BMP_temperature;BMP_pressure;BME280_temperature;BME280_humidity;BME280_pressure;Samples;Min_cycle;Max_cycle;Signal;HPM_P1;HPM_P2
2022/12/04 00:01:51;;;;;;;69.20;32.73;;;1.50;99.90;;;;;;5011123;28;37839;-74
2022/12/04 00:04:17;;;;;;;68.73;32.53;;;1.50;99.90;;;;;;5020690;28;36340;-75
2022/12/04 00:06:43;;;;;;;63.70;32.50;;;1.50;99.90;;;;;;5008627;28;38652;-75
2022/12/04 00:09:09;;;;;;;68.57;31.30;;;1.50;99.90;;;;;;5022633;28;37312;-74
2022/12/04 00:11:35;;;;;;;68.60;32.33;;;1.50;99.90;;;;;;5015690;28;36912;-74
2022/12/04 00:14:01;;;;;;;71.63;33.60;;;1.40;99.90;;;;;;5010015;28;36316;-74
2022/12/04 00:16:28;;;;;;;62.17;31.60;;;1.40;99.90;;;;;;5003714;28;48355;-74
2022/12/04 00:18:55;;;;;;;64.90;30.37;;;1.40;99.90;;;;;;5005028;28;38555;-75
2022/12/04 00:21:23;;;;;;;66.27;31.90;;;1.40;99.90;;;;;;5007644;28;37936;-75
2022/12/04 00:23:50;;;;;;;73.60;33.57;;;1.40;99.90;;;;;;5001708;28;37863;-74
2022/12/04 00:26:21;;;;;;;72.50;32.67;;;1.40;99.90;;;;;;5012170;28;40514;-75
2022/12/04 00:28:49;;;;;;;73.43;32.70;;;1.40;99.90;;;;;;5009524;28;38178;-74
2022/12/04 00:31:18;;;;;;;74.60;34.13;;;1.40;99.90;;;;;;5018814;28;37158;-74
2022/12/04 00:33:45;;;;;;;69.80;32.90;;;1.50;99.90;;;;;;5011331;28;36458;-74
2022/12/04 00:36:14;;;;;;;73.57;33.50;;;1.40;99.90;;;;;;5021412;28;38997;-75
2022/12/04 00:38:42;;;;;;;68.10;33.00;;;1.40;99.90;;;;;;5010441;28;39149;-75
2022/12/04 00:41:11;;;;;;;72.43;34.37;;;1.40;99.90;;;;;;5011920;28;37093;-75
2022/12/04 00:43:37;;;;;;;82.37;33.93;;;1.40;99.90;;;;;;5018621;28;36887;-74
2022/12/04 00:46:03;;;;;;;69.47;31.57;;;1.40;99.90;;;;;;5011311;28;39888;-75
2022/12/04 00:48:29;;;;;;;69.27;31.83;;;1.40;99.90;;;;;;5023330;28;40066;-74
2022/12/04 00:51:00;;;;;;;77.60;36.17;;;1.40;99.90;;;;;;5009810;28;38216;-74
2022/12/04 00:53:26;;;;;;;72.30;33.40;;;1.40;99.90;;;;;;5007868;28;37812;-74
2022/12/04 00:55:52;;;;;;;67.33;32.17;;;1.40;99.90;;;;;;5021936;28;37880;-75
2022/12/04 00:58:18;;;;;;;75.07;32.57;;;1.40;99.90;;;;;;5003883;28;39544;-74
2022/12/04 01:00:44;;;;;;;74.00;35.13;;;1.40;99.90;;;;;;5005967;28;36930;-75
2022/12/04 01:03:10;;;;;;;74.13;35.27;;;1.30;99.90;;;;;;5005564;28;37215;-75
2022/12/04 01:05:44;;;;;;;77.70;33.87;;;1.30;99.90;;;;;;5007537;28;38482;-75
2022/12/04 01:08:11;;;;;;;67.70;31.87;;;1.30;99.90;;;;;;5005410;28;38311;-74
2022/12/04 01:10:39;;;;;;;70.70;33.77;;;1.20;99.90;;;;;;5003220;28;37819;-73
2022/12/04 01:13:05;;;;;;;73.50;34.10;;;1.20;99.90;;;;;;5023428;28;36600;-75
2022/12/04 01:15:31;;;;;;;78.47;34.10;;;1.20;99.90;;;;;;5004483;28;38747;-75
2022/12/04 01:17:58;;;;;;;77.83;35.30;;;1.20;99.90;;;;;;5003638;28;38612;-76
2022/12/04 01:20:24;;;;;;;71.90;34.33;;;1.20;99.90;;;;;;5005013;28;38532;-74
2022/12/04 01:22:50;;;;;;;79.53;36.17;;;1.30;99.90;;;;;;5008171;28;37467;-74
2022/12/04 01:25:16;;;;;;;75.70;36.03;;;1.20;99.90;;;;;;5024412;28;37816;-74
2022/12/04 01:27:42;;;;;;;77.80;35.80;;;1.30;99.90;;;;;;5000848;28;37674;-74
2022/12/04 01:30:09;;;;;;;84.90;37.63;;;1.30;99.90;;;;;;5007121;28;38048;-75
2022/12/04 01:32:35;;;;;;;72.37;35.80;;;1.30;99.90;;;;;;5022793;28;36081;-76
2022/12/04 01:35:01;;;;;;;80.20;37.10;;;1.30;99.90;;;;;;5009621;28;39009;-75
2022/12/04 01:37:30;;;;;;;80.63;35.50;;;1.30;99.90;;;;;;5017968;28;38756;-75
2022/12/04 01:39:57;;;;;;;80.57;37.47;;;1.30;99.90;;;;;;5008330;28;38917;-74
2022/12/04 01:42:23;;;;;;;74.27;35.53;;;1.30;99.90;;;;;;5025044;28;36416;-75
2022/12/04 01:45:26;;;;;;;73.70;34.60;;;1.30;99.90;;;;;;5010403;28;38467;-75
2022/12/04 01:47:56;;;;;;;74.50;35.47;;;1.30;99.90;;;;;;5023495;28;48775;-74
2022/12/04 01:50:23;;;;;;;81.57;37.67;;;1.20;99.90;;;;;;5003093;28;36805;-74
2022/12/04 01:52:50;;;;;;;72.07;35.77;;;1.30;99.90;;;;;;5012526;28;36061;-74
2022/12/04 01:55:17;;;;;;;83.20;37.03;;;1.30;99.90;;;;;;5008429;28;37491;-73
2022/12/04 01:57:44;;;;;;;83.33;34.57;;;1.20;99.90;;;;;;5006488;28;38169;-74
2022/12/04 02:00:13;;;;;;;77.73;35.30;;;1.20;99.90;;;;;;5013279;28;38269;-73
2022/12/04 02:02:43;;;;;;;77.70;35.70;;;1.20;99.90;;;;;;5444584;22;47646;-78
2022/12/04 02:05:18;;;;;;;73.23;35.53;;;1.20;99.90;;;;;;5000903;28;37376;-78
2022/12/04 02:07:46;;;;;;;74.70;35.60;;;1.20;99.90;;;;;;5007187;28;38463;-78
2022/12/04 02:10:15;;;;;;;74.77;35.73;;;1.20;99.90;;;;;;4989918;28;37840;-78
2022/12/04 02:13:11;;;;;;;82.37;36.77;;;1.20;99.90;;;;;;4992688;28;38436;-78
2022/12/04 02:15:53;;;;;;;77.33;36.83;;;1.20;99.90;;;;;;4991016;28;47828;-77
2022/12/04 02:18:35;;;;;;;78.40;36.53;;;1.20;99.90;;;;;;5006247;28;37351;-78
2022/12/04 02:21:14;;;;;;;73.50;35.57;;;1.20;99.90;;;;;;5011781;28;37155;-79
2022/12/04 02:24:10;;;;;;;78.30;35.23;;;1.20;99.90;;;;;;5007951;28;47281;-78
2022/12/04 02:26:39;;;;;;;81.40;36.77;;;1.20;99.90;;;;;;4996559;28;48637;-79
2022/12/04 02:29:29;;;;;;;79.40;36.77;;;1.20;99.90;;;;;;4989986;28;38521;-78
2022/12/04 02:32:01;;;;;;;77.33;36.27;;;1.20;99.90;;;;;;4989619;28;38568;-79
2022/12/04 02:34:46;;;;;;;78.55;36.53;;;1.20;99.90;;;;;;5003467;28;38126;-78
2022/12/04 02:37:22;;;;;;;78.07;36.43;;;1.20;99.90;;;;;;4991621;28;40011;-78
2022/12/04 02:39:54;;;;;;;77.30;37.07;;;1.20;99.90;;;;;;4992922;28;38407;-78
2022/12/04 02:42:24;;;;;;;;;;;1.30;99.90;;;;;;4995267;28;38142;-78
2022/12/04 02:45:00;;;;;;;77.37;35.83;;;1.30;99.90;;;;;;4989797;28;38036;-78
2022/12/04 02:47:28;;;;;;;80.63;37.77;;;1.30;99.90;;;;;;4991329;28;38373;-78
2022/12/04 02:50:06;;;;;;;80.73;36.63;;;1.30;99.90;;;;;;4993530;28;38632;-78
2022/12/04 02:52:39;;;;;;;79.67;36.40;;;1.30;99.90;;;;;;4988081;28;48222;-78
2022/12/04 02:55:12;;;;;;;82.10;37.93;;;1.30;99.90;;;;;;5009777;28;37267;-78
2022/12/04 02:57:44;;;;;;;79.60;37.45;;;1.30;99.90;;;;;;5009952;28;39540;-78
2022/12/04 03:00:11;;;;;;;82.15;38.85;;;1.30;99.90;;;;;;4995332;28;39211;-77
2022/12/04 03:02:44;;;;;;;81.40;38.13;;;1.30;99.90;;;;;;4988259;28;38919;-77
2022/12/04 03:05:16;;;;;;;81.97;35.87;;;1.30;99.90;;;;;;4992928;28;37789;-78
2022/12/04 03:07:52;;;;;;;79.28;35.80;;;1.30;99.90;;;;;;5010657;28;39797;-78
2022/12/04 03:10:29;;;;;;;78.50;36.93;;;1.30;99.90;;;;;;4996369;28;39711;-79
2022/12/04 03:13:08;;;;;;;79.50;37.13;;;1.30;99.90;;;;;;5010626;28;37559;-78
2022/12/04 03:15:58;;;;;;;85.20;38.23;;;1.30;99.90;;;;;;4988874;28;47086;-77
2022/12/04 03:18:32;;;;;;;85.83;38.57;;;1.30;99.90;;;;;;4998097;28;39398;-77
2022/12/04 03:21:04;;;;;;;75.47;35.80;;;1.30;99.90;;;;;;4995046;28;38749;-78
2022/12/04 03:23:36;;;;;;;79.57;38.15;;;1.30;99.90;;;;;;5009685;28;47077;-78
2022/12/04 03:26:10;;;;;;;83.33;38.53;;;1.30;99.90;;;;;;5003556;28;38530;-78
2022/12/04 03:28:39;;;;;;;82.63;38.17;;;1.30;99.90;;;;;;4995707;28;45952;-78
2022/12/04 03:31:08;;;;;;;83.03;38.43;;;1.30;99.90;;;;;;4990149;28;39339;-78
2022/12/04 03:33:42;;;;;;;84.20;37.87;;;1.30;99.90;;;;;;5003751;28;38391;-78
2022/12/04 03:36:33;;;;;;;83.97;37.17;;;1.30;99.90;;;;;;5008456;28;38080;-77
2022/12/04 03:39:23;;;;;;;80.93;37.83;;;1.30;99.90;;;;;;4990257;28;39555;-77
2022/12/04 03:42:03;;;;;;;78.27;36.50;;;1.30;99.90;;;;;;5004631;28;47026;-77
2022/12/04 03:44:40;;;;;;;83.60;38.53;;;1.30;99.90;;;;;;5004360;28;47147;-78
2022/12/04 03:47:15;;;;;;;80.97;37.03;;;1.30;99.90;;;;;;4994140;28;38145;-78
2022/12/04 03:49:44;;;;;;;81.53;37.33;;;1.30;99.90;;;;;;5006568;28;38336;-77
2022/12/04 03:52:23;;;;;;;79.80;38.30;;;1.30;99.90;;;;;;5008570;28;38514;-77
2022/12/04 03:55:03;;;;;;;89.23;40.13;;;1.40;99.90;;;;;;5004397;28;38408;-78
2022/12/04 03:57:35;;;;;;;80.17;37.80;;;1.30;99.90;;;;;;4990154;28;38669;-77
2022/12/04 04:00:02;;;;;;;;;;;1.30;99.90;;;;;;4990017;28;38071;-78
2022/12/04 04:02:35;;;;;;;82.57;38.60;;;1.40;99.90;;;;;;4988481;28;39194;-78
2022/12/04 04:05:04;;;;;;;81.00;38.60;;;1.40;99.90;;;;;;4993050;28;38159;-78
2022/12/04 04:07:47;;;;;;;82.23;39.23;;;1.40;99.90;;;;;;4990128;28;47832;-77
2022/12/04 04:10:18;;;;;;;82.77;36.77;;;1.40;99.90;;;;;;5008649;28;38707;-76
2022/12/04 04:24:35;;;;;;;80.13;38.83;;;1.40;99.90;;;;;;4994929;28;39902;-77
2022/12/04 04:27:01;;;;;;;83.82;39.03;;;1.40;99.90;;;;;;5006865;28;36945;-78
2022/12/04 04:29:28;;;;;;;84.47;40.03;;;1.40;99.90;;;;;;5009399;28;46966;-77
2022/12/04 04:32:01;;;;;;;80.70;38.77;;;1.30;99.90;;;;;;4993895;28;39759;-78
2022/12/04 04:34:39;;;;;;;85.63;39.85;;;1.40;99.90;;;;;;4992373;28;38548;-78
2022/12/04 04:37:33;;;;;;;81.17;40.03;;;1.30;99.90;;;;;;4989614;28;38702;-77
2022/12/04 04:40:00;;;;;;;83.47;38.50;;;1.40;99.90;;;;;;4992718;28;36376;-78
2022/12/04 04:42:40;;;;;;;85.30;40.70;;;1.40;99.90;;;;;;4991771;28;38859;-78
2022/12/04 04:45:12;;;;;;;78.03;37.53;;;1.30;99.90;;;;;;4985720;28;38921;-77
2022/12/04 04:47:54;;;;;;;78.85;37.67;;;1.30;99.90;;;;;;5006004;28;39769;-78
2022/12/04 04:50:21;;;;;;;84.43;38.80;;;1.40;99.90;;;;;;4982133;28;39226;-78
2022/12/04 04:52:51;;;;;;;85.70;39.70;;;1.30;99.90;;;;;;5004258;28;37234;-78
2022/12/04 04:55:19;;;;;;;81.33;39.43;;;1.30;99.90;;;;;;4990157;28;38259;-77
2022/12/04 04:57:46;;;;;;;79.70;38.93;;;1.40;99.90;;;;;;5003418;28;38314;-76
2022/12/04 05:00:18;;;;;;;86.53;40.80;;;1.40;99.90;;;;;;5005073;28;38038;-78
2022/12/04 05:02:45;;;;;;;78.53;39.87;;;1.30;99.90;;;;;;5009574;28;39146;-78
2022/12/04 05:05:12;;;;;;;76.70;37.73;;;1.30;99.90;;;;;;4993090;28;39903;-77
2022/12/04 05:07:38;;;;;;;84.27;38.47;;;1.30;99.90;;;;;;4989736;28;36559;-78
2022/12/04 05:10:05;;;;;;;89.10;40.30;;;1.30;99.90;;;;;;4995958;28;37427;-78
2022/12/04 05:12:31;;;;;;;84.20;38.77;;;1.30;99.90;;;;;;4987019;28;48372;-78
2022/12/04 05:14:57;;;;;;;80.57;39.23;;;1.40;99.90;;;;;;5010861;28;39083;-79
2022/12/04 05:17:24;;;;;;;78.17;39.53;;;1.30;99.90;;;;;;4995618;28;39747;-79
2022/12/04 05:19:52;;;;;;;87.50;39.60;;;1.30;99.90;;;;;;4989523;28;37536;-77
2022/12/04 05:22:30;;;;;;;84.87;40.33;;;1.40;99.90;;;;;;4992362;28;41161;-78
2022/12/04 05:24:57;;;;;;;80.17;38.87;;;1.40;99.90;;;;;;5009043;28;38999;-78
2022/12/04 05:27:25;;;;;;;75.03;38.37;;;1.40;99.90;;;;;;5009347;28;36995;-79
2022/12/04 05:29:53;;;;;;;83.87;38.83;;;1.40;99.90;;;;;;5009359;28;37510;-78
2022/12/04 05:32:20;;;;;;;83.23;40.00;;;1.40;99.90;;;;;;5009844;28;39561;-78
2022/12/04 05:34:48;;;;;;;82.47;38.97;;;1.40;99.90;;;;;;5005219;28;39235;-78
2022/12/04 05:37:14;;;;;;;80.50;38.87;;;1.40;99.90;;;;;;4994957;28;37397;-78
2022/12/04 05:39:40;;;;;;;80.73;39.50;;;1.40;99.90;;;;;;5010609;28;37585;-79
2022/12/04 05:42:07;;;;;;;80.43;39.57;;;1.40;99.90;;;;;;5000111;28;37724;-78
2022/12/04 05:44:33;;;;;;;81.10;40.23;;;1.40;99.90;;;;;;4996164;28;37987;-78
2022/12/04 05:46:59;;;;;;;83.03;38.43;;;1.40;99.90;;;;;;5011397;28;36897;-79
2022/12/04 05:49:28;;;;;;;78.90;39.83;;;1.50;99.90;;;;;;5009167;28;38007;-78
2022/12/04 05:51:54;;;;;;;87.90;42.23;;;1.40;99.90;;;;;;5009425;28;37066;-79
2022/12/04 05:54:21;;;;;;;82.70;39.30;;;1.40;99.90;;;;;;5007119;28;37717;-79
2022/12/04 05:56:47;;;;;;;86.20;40.43;;;1.40;99.90;;;;;;5006842;28;36739;-78
2022/12/04 05:59:14;;;;;;;78.87;38.87;;;1.40;99.90;;;;;;4989046;28;37793;-78
2022/12/04 06:01:41;;;;;;;80.10;39.23;;;1.40;99.90;;;;;;4991681;28;37349;-77
2022/12/04 06:04:07;;;;;;;82.67;40.10;;;1.50;99.90;;;;;;4987659;28;38626;-78
2022/12/04 06:06:33;;;;;;;81.57;40.13;;;1.50;99.90;;;;;;4992103;28;37601;-77
2022/12/04 06:08:59;;;;;;;81.07;40.13;;;1.40;99.90;;;;;;5008075;28;36234;-77
2022/12/04 06:11:29;;;;;;;82.80;40.33;;;1.40;99.90;;;;;;4991905;28;38977;-78
2022/12/04 06:13:56;;;;;;;83.03;39.87;;;1.50;99.90;;;;;;5006577;28;37364;-78
2022/12/04 06:16:43;;;;;;;89.33;42.17;;;1.50;99.90;;;;;;5007013;28;37835;-79
2022/12/04 06:19:16;;;;;;;78.77;38.77;;;1.50;99.90;;;;;;4988219;28;36964;-78
2022/12/04 06:21:44;;;;;;;80.93;40.17;;;1.50;99.90;;;;;;5001796;28;38951;-78
2022/12/04 06:24:30;;;;;;;79.00;38.60;;;1.50;99.90;;;;;;4991541;28;39519;-78
2022/12/04 06:26:58;;;;;;;82.03;41.07;;;1.50;99.90;;;;;;5008240;28;37668;-78
2022/12/04 06:29:24;;;;;;;82.17;39.50;;;1.50;99.90;;;;;;4992285;28;36786;-78
2022/12/04 06:31:50;;;;;;;82.93;39.63;;;1.50;99.90;;;;;;5011668;28;38866;-78
2022/12/04 06:34:17;;;;;;;84.40;40.40;;;1.40;99.90;;;;;;5010020;28;38670;-77
2022/12/04 06:36:43;;;;;;;84.67;39.43;;;1.50;99.90;;;;;;5001581;28;37895;-77
2022/12/04 06:39:09;;;;;;;88.13;41.83;;;1.40;99.90;;;;;;5001282;28;36028;-78
2022/12/04 06:41:36;;;;;;;83.90;41.00;;;1.50;99.90;;;;;;5006204;28;39006;-77
2022/12/04 06:44:02;;;;;;;80.70;40.07;;;1.50;99.90;;;;;;5007453;28;39884;-77
2022/12/04 06:46:30;;;;;;;78.43;40.10;;;1.40;99.90;;;;;;4992653;28;38499;-78
2022/12/04 06:48:58;;;;;;;85.50;40.67;;;1.40;99.90;;;;;;5006129;28;37121;-78
2022/12/04 06:51:34;;;;;;;84.07;40.23;;;1.40;99.90;;;;;;5009868;28;40228;-78
2022/12/04 06:54:01;;;;;;;86.83;40.20;;;1.40;99.90;;;;;;5006577;28;38662;-78
2022/12/04 06:56:30;;;;;;;87.00;39.20;;;1.50;99.90;;;;;;4993091;28;38409;-78
2022/12/04 06:58:58;;;;;;;82.10;39.87;;;1.50;99.90;;;;;;4994070;28;37585;-77
2022/12/04 07:01:27;;;;;;;82.73;40.60;;;1.40;99.90;;;;;;4985619;28;39771;-78
2022/12/04 07:03:55;;;;;;;87.53;43.80;;;1.50;99.90;;;;;;4993359;28;38703;-78
2022/12/04 07:06:23;;;;;;;85.20;39.27;;;1.40;99.90;;;;;;4995512;28;37818;-79
2022/12/04 07:09:02;;;;;;;88.27;41.97;;;1.50;99.90;;;;;;4995308;28;37809;-78
2022/12/04 07:11:29;;;;;;;89.20;40.83;;;1.50;99.90;;;;;;4986029;28;49005;-78
2022/12/04 07:13:56;;;;;;;81.43;39.23;;;1.50;99.90;;;;;;5001716;28;39012;-77
2022/12/04 07:16:23;;;;;;;73.87;38.67;;;1.50;99.90;;;;;;5005227;28;38870;-78
2022/12/04 07:18:52;;;;;;;81.83;39.83;;;1.50;99.90;;;;;;4999851;28;38215;-77
2022/12/04 07:21:20;;;;;;;79.07;39.73;;;1.50;99.90;;;;;;4986666;28;38872;-78
2022/12/04 07:23:55;;;;;;;83.03;39.30;;;1.50;99.90;;;;;;4990945;28;38339;-78
2022/12/04 07:26:22;;;;;;;82.00;40.40;;;1.50;99.90;;;;;;5009253;28;39491;-78
2022/12/04 07:28:49;;;;;;;79.57;40.20;;;1.50;99.90;;;;;;4993357;28;37107;-79
2022/12/04 07:31:17;;;;;;;83.23;40.50;;;1.50;99.90;;;;;;5005070;28;39342;-78
2022/12/04 07:33:44;;;;;;;84.03;41.33;;;1.50;99.90;;;;;;4989341;28;36989;-79
2022/12/04 07:36:16;;;;;;;81.93;40.10;;;1.50;99.90;;;;;;4991501;28;38871;-78
2022/12/04 07:38:42;;;;;;;82.00;41.43;;;1.50;99.90;;;;;;5010884;28;38027;-77
2022/12/04 07:41:10;;;;;;;77.77;38.50;;;1.50;99.90;;;;;;5005452;28;39343;-78
2022/12/04 07:43:37;;;;;;;85.67;39.50;;;1.50;99.90;;;;;;5000921;28;39055;-78
2022/12/04 07:46:08;;;;;;;82.60;41.57;;;1.50;99.90;;;;;;5003741;28;40705;-79
2022/12/04 07:48:34;;;;;;;81.30;39.63;;;1.50;99.90;;;;;;4985086;28;49186;-77
2022/12/04 07:51:24;;;;;;;81.13;39.67;;;1.50;99.90;;;;;;4989930;28;38277;-78
2022/12/04 07:53:52;;;;;;;84.50;40.17;;;1.50;99.90;;;;;;4986341;28;47471;-77
2022/12/04 07:56:19;;;;;;;77.67;39.43;;;1.50;99.90;;;;;;4989142;28;38231;-78
2022/12/04 07:58:45;;;;;;;79.63;38.40;;;1.50;99.90;;;;;;4989603;28;38477;-77
2022/12/04 08:01:17;;;;;;;75.93;38.93;;;1.50;99.90;;;;;;4988474;28;38471;-78
2022/12/04 08:03:45;;;;;;;80.30;39.60;;;1.50;99.90;;;;;;5002970;28;38903;-79
2022/12/04 08:06:11;;;;;;;81.60;38.83;;;1.50;99.90;;;;;;5001463;28;38453;-78
2022/12/04 08:08:37;;;;;;;82.83;40.83;;;1.50;99.90;;;;;;4988687;28;37606;-77
2022/12/04 08:11:09;;;;;;;86.30;41.73;;;1.60;99.90;;;;;;4986213;28;38927;-78
2022/12/04 08:13:35;;;;;;;83.60;40.40;;;1.60;99.90;;;;;;5005061;28;47098;-78
2022/12/04 08:16:03;;;;;;;77.67;38.90;;;1.60;99.90;;;;;;5002324;28;38526;-78
2022/12/04 08:18:29;;;;;;;81.03;39.57;;;1.60;99.90;;;;;;4996741;28;38084;-78
2022/12/04 08:21:12;;;;;;;82.07;38.70;;;1.60;99.90;;;;;;4983113;28;37419;-78
2022/12/04 08:23:42;;;;;;;77.50;39.63;;;1.60;99.90;;;;;;4985728;28;20039;-77
2022/12/04 08:26:09;;;;;;;79.23;39.10;;;1.60;99.90;;;;;;4994646;28;37413;-78
2022/12/04 08:28:35;;;;;;;82.37;40.13;;;1.60;99.90;;;;;;4980800;28;37673;-78
2022/12/04 08:31:06;;;;;;;82.40;39.73;;;1.60;99.90;;;;;;4982233;28;38888;-78
2022/12/04 08:33:32;;;;;;;76.40;40.03;;;1.60;99.90;;;;;;5000157;28;47232;-78
2022/12/04 08:35:59;;;;;;;76.43;38.63;;;1.60;99.90;;;;;;4987508;28;38507;-77
2022/12/04 08:38:27;;;;;;;79.17;39.97;;;1.60;99.90;;;;;;5000340;28;38183;-78
2022/12/04 08:40:53;;;;;;;83.07;39.33;;;1.60;99.90;;;;;;4986838;28;39553;-77
2022/12/04 08:43:19;;;;;;;74.33;38.70;;;1.60;99.90;;;;;;4985156;28;38845;-79
2022/12/04 08:45:57;;;;;;;79.43;38.47;;;1.70;99.90;;;;;;4984913;28;40454;-78
2022/12/04 08:48:23;;;;;;;77.00;38.07;;;1.70;99.90;;;;;;4990315;28;36710;-78
2022/12/04 08:50:49;;;;;;;73.73;38.63;;;1.70;99.90;;;;;;5000725;28;40230;-77
2022/12/04 08:53:16;;;;;;;74.47;37.77;;;1.70;99.90;;;;;;5001714;28;38425;-77
2022/12/04 08:55:42;;;;;;;74.70;38.57;;;1.70;99.90;;;;;;4990103;28;40109;-79
2022/12/04 08:58:08;;;;;;;78.73;40.03;;;1.70;99.90;;;;;;4987871;28;37138;-78
2022/12/04 09:00:34;;;;;;;76.13;37.27;;;1.70;99.90;;;;;;5007324;28;37573;-77
2022/12/04 09:03:00;;;;;;;74.90;37.80;;;1.80;99.90;;;;;;4989622;28;41509;-77
2022/12/04 09:05:28;;;;;;;74.87;36.97;;;1.70;99.90;;;;;;5001874;28;38592;-78
2022/12/04 09:07:55;;;;;;;74.60;37.10;;;1.80;99.90;;;;;;5002443;28;38091;-78
2022/12/04 09:10:21;;;;;;;76.60;37.40;;;1.80;99.90;;;;;;5002306;28;39868;-78
2022/12/04 09:12:48;;;;;;;69.13;36.57;;;1.80;99.90;;;;;;4990101;28;40141;-78
2022/12/04 09:15:14;;;;;;;72.77;36.87;;;1.80;99.90;;;;;;4988384;28;38728;-78
2022/12/04 09:17:40;;;;;;;78.40;39.67;;;1.90;99.90;;;;;;5007168;28;37660;-79
2022/12/04 09:20:07;;;;;;;71.67;36.43;;;1.90;99.90;;;;;;4991027;28;39846;-79
2022/12/04 09:22:34;;;;;;;70.00;37.30;;;1.90;99.90;;;;;;4993528;28;37525;-78
2022/12/04 09:25:00;;;;;;;74.47;36.73;;;1.90;99.90;;;;;;5009183;28;39098;-79
2022/12/04 09:27:29;;;;;;;70.50;36.50;;;1.90;99.90;;;;;;5002610;28;36429;-79
2022/12/04 09:29:56;;;;;;;73.03;35.63;;;1.90;99.90;;;;;;5015276;28;38478;-79
2022/12/04 09:32:22;;;;;;;67.37;34.87;;;1.90;99.90;;;;;;5001258;28;37158;-79
2022/12/04 09:34:48;;;;;;;76.27;36.00;;;1.90;99.90;;;;;;5016355;28;37076;-80
2022/12/04 09:37:16;;;;;;;71.17;36.50;;;1.90;99.90;;;;;;5018395;28;37558;-80
2022/12/04 09:39:42;;;;;;;73.93;37.07;;;2.00;99.90;;;;;;5018153;28;38277;-79
2022/12/04 09:42:36;;;;;;;72.27;36.73;;;2.00;99.90;;;;;;5015716;28;38174;-79
2022/12/04 09:45:08;;;;;;;72.70;35.97;;;2.00;99.90;;;;;;4996521;28;37081;-80
2022/12/04 09:47:39;;;;;;;70.80;35.25;;;2.00;99.90;;;;;;4998938;28;47274;-81
2022/12/04 09:50:29;;;;;;;67.70;34.37;;;2.00;99.90;;;;;;4985537;28;40348;-77
2022/12/04 09:53:18;;;;;;;67.87;36.20;;;2.00;99.90;;;;;;4995418;28;37235;-77
2022/12/04 09:56:00;;;;;;;67.67;33.73;;;2.10;99.90;;;;;;4980603;28;47381;-77
2022/12/04 09:59:04;;;;;;;66.65;34.47;;;2.00;99.90;;;;;;4987427;28;36209;-78
2022/12/04 10:01:57;;;;;;;68.13;34.60;;;2.00;99.90;;;;;;4996031;28;38294;-78
2022/12/04 10:04:24;;;;;;;74.68;34.40;;;2.10;99.90;;;;;;4983779;28;38413;-79
2022/12/04 10:07:09;;;;;;;66.77;33.87;;;2.10;99.90;;;;;;4989269;28;38426;-78
2022/12/04 10:09:47;;;;;;;69.83;33.97;;;2.10;99.90;;;;;;4987810;28;47327;-78
2022/12/04 10:12:28;;;;;;;65.73;34.70;;;2.10;99.90;;;;;;5001549;28;37575;-77
2022/12/04 10:15:30;;;;;;;71.13;35.43;;;2.10;99.90;;;;;;4989015;28;38238;-78
2022/12/04 10:18:11;;;;;;;70.50;33.10;;;2.20;99.90;;;;;;4950769;28;46964;-77
2022/12/04 10:21:18;;;;;;;70.90;34.57;;;2.10;99.90;;;;;;5004961;28;47086;-77
2022/12/04 10:24:10;;;;;;;67.43;34.77;;;2.20;99.90;;;;;;4926292;28;47093;-76
2022/12/04 10:26:42;;;;;;;68.07;34.70;;;2.20;99.90;;;;;;5008741;28;47262;-78
2022/12/04 10:29:20;;;;;;;69.25;35.10;;;2.20;99.90;;;;;;4992383;28;38038;-78
2022/12/04 10:31:46;;;;;;;69.23;33.77;;;2.20;99.90;;;;;;4992265;28;37453;-77
2022/12/04 10:34:19;;;;;;;71.13;33.90;;;2.20;99.90;;;;;;4996199;28;39728;-77
2022/12/04 10:36:50;;;;;;;64.47;33.30;;;2.20;99.90;;;;;;4997084;28;38907;-77
2022/12/04 10:39:32;;;;;;;72.93;35.30;;;2.20;99.90;;;;;;4988025;28;37962;-77
2022/12/04 10:42:10;;;;;;;73.33;34.67;;;2.20;99.90;;;;;;4984852;28;37704;-78
2022/12/04 10:44:38;;;;;;;64.07;33.53;;;2.20;99.90;;;;;;4981771;28;47323;-76
2022/12/04 10:47:11;;;;;;;71.07;34.43;;;2.20;99.90;;;;;;4981276;28;36754;-78
2022/12/04 10:49:38;;;;;;;69.03;34.80;;;2.20;99.90;;;;;;4983617;28;38931;-77
2022/12/04 10:52:08;;;;;;;70.07;35.33;;;2.20;99.90;;;;;;4982840;28;37644;-75
2022/12/04 10:54:48;;;;;;;69.77;35.40;;;2.20;99.90;;;;;;5003340;28;40513;-76
2022/12/04 10:57:15;;;;;;;75.90;36.07;;;2.30;99.90;;;;;;4988732;28;39116;-77
2022/12/04 10:59:48;;;;;;;66.63;34.50;;;2.20;99.90;;;;;;5000048;28;39861;-77
2022/12/04 11:02:27;;;;;;;68.70;34.87;;;2.20;99.90;;;;;;4982695;28;36378;-78
2022/12/04 11:04:57;;;;;;;68.43;34.60;;;2.30;99.90;;;;;;4998778;28;39376;-77
2022/12/04 11:07:34;;;;;;;72.53;35.83;;;2.30;99.90;;;;;;4982133;28;38711;-77
2022/12/04 11:10:05;;;;;;;68.13;34.00;;;2.40;99.90;;;;;;4988765;28;38039;-77
2022/12/04 11:12:32;;;;;;;69.10;34.40;;;2.40;99.90;;;;;;5005678;28;46866;-77
2022/12/04 11:15:18;;;;;;;68.23;33.73;;;2.50;99.90;;;;;;4987652;28;39619;-78
2022/12/04 11:17:44;;;;;;;64.73;31.33;;;2.50;99.90;;;;;;4995446;28;46967;-77
2022/12/04 11:20:20;;;;;;;64.80;33.70;;;2.40;99.90;;;;;;4999592;28;38757;-77
2022/12/04 11:22:51;;;;;;;63.70;31.70;;;2.50;99.90;;;;;;4997846;28;39049;-77
2022/12/04 11:25:19;;;;;;;67.77;35.30;;;2.50;99.90;;;;;;4984574;28;41400;-76
2022/12/04 11:27:52;;;;;;;67.70;33.40;;;2.50;99.90;;;;;;4988332;28;39264;-77
2022/12/04 11:30:30;;;;;;;70.93;36.17;;;2.50;99.90;;;;;;4985940;28;38806;-78
2022/12/04 11:32:57;;;;;;;64.80;33.27;;;2.50;99.90;;;;;;4989046;28;37518;-78
2022/12/04 11:35:26;;;;;;;67.20;32.63;;;2.60;99.90;;;;;;4985615;28;38707;-78
2022/12/04 11:37:56;;;;;;;64.93;31.93;;;2.60;99.90;;;;;;5003734;28;39905;-77
2022/12/04 11:40:24;;;;;;;58.67;30.27;;;2.50;99.90;;;;;;4996867;28;39948;-78
2022/12/04 11:43:14;;;;;;;61.70;30.30;;;2.50;99.90;;;;;;4981824;28;38908;-78
2022/12/04 11:45:52;;;;;;;56.10;28.87;;;2.50;99.90;;;;;;4992521;28;47828;-77
2022/12/04 11:48:18;;;;;;;54.90;27.57;;;2.60;99.90;;;;;;5000601;28;38302;-77
2022/12/04 11:50:52;;;;;;;54.57;28.17;;;2.50;99.90;;;;;;4981177;28;38770;-77
2022/12/04 11:54:02;;;;;;;50.00;25.93;;;2.50;99.90;;;;;;4978772;28;38109;-77
2022/12/04 11:56:33;;;;;;;46.33;23.97;;;2.50;99.90;;;;;;4997642;28;39716;-77
2022/12/04 11:59:20;;;;;;;51.70;24.67;;;2.40;99.90;;;;;;4993800;28;36765;-77
2022/12/04 12:01:58;;;;;;;51.20;25.30;;;2.40;99.90;;;;;;4994513;28;47234;-78
2022/12/04 12:04:33;;;;;;;47.53;24.00;;;2.40;99.90;;;;;;4993184;28;36416;-76
2022/12/04 12:07:25;;;;;;;48.67;24.70;;;2.30;99.90;;;;;;4993609;28;39838;-76
2022/12/04 12:10:39;;;;;;;46.00;23.90;;;2.30;99.90;;;;;;4981772;28;48288;-78
2022/12/04 12:13:18;;;;;;;47.22;22.27;;;2.30;99.90;;;;;;4907151;29;45679;-77
2022/12/04 12:15:53;;;;;;;46.93;24.27;;;2.20;99.90;;;;;;4919954;28;38064;-77
2022/12/04 12:18:19;;;;;;;50.27;23.97;;;2.20;99.90;;;;;;4959530;28;39306;-77
2022/12/04 12:20:48;;;;;;;49.93;24.63;;;2.20;99.90;;;;;;4977532;28;38499;-77
2022/12/04 12:23:38;;;;;;;53.20;27.13;;;2.30;99.90;;;;;;4994032;28;35833;-78
2022/12/04 12:26:08;;;;;;;50.20;25.67;;;2.20;99.90;;;;;;4994277;28;36497;-78
2022/12/04 12:28:48;;;;;;;50.00;26.27;;;2.20;99.90;;;;;;4972155;28;47822;-77
2022/12/04 12:31:58;;;;;;;51.13;24.70;;;2.20;99.90;;;;;;4985894;28;37825;-77
2022/12/04 12:34:33;;;;;;;49.20;24.07;;;2.10;99.90;;;;;;4979977;28;39072;-77
2022/12/04 12:37:07;;;;;;;53.33;25.17;;;2.10;99.90;;;;;;4994266;28;39125;-76
2022/12/04 12:39:48;;;;;;;51.87;25.67;;;2.10;99.90;;;;;;4991353;28;47220;-76
2022/12/04 12:42:24;;;;;;;50.63;25.53;;;2.10;99.90;;;;;;4974337;28;39633;-76
2022/12/04 12:45:15;;;;;;;55.13;26.73;;;2.00;99.90;;;;;;4991423;28;38498;-75
2022/12/04 12:47:45;;;;;;;52.87;24.53;;;2.00;99.90;;;;;;4977657;28;49468;-77
2022/12/04 12:50:21;;;;;;;54.63;26.53;;;2.00;99.90;;;;;;4978573;28;40330;-78
2022/12/04 12:53:00;;;;;;;53.53;25.30;;;2.00;99.90;;;;;;4978379;28;38687;-78
2022/12/04 12:55:49;;;;;;;58.63;26.20;;;2.10;99.90;;;;;;5000131;28;36673;-78
2022/12/04 12:58:34;;;;;;;59.60;26.83;;;2.10;99.90;;;;;;4994607;28;35956;-79
2022/12/04 13:01:18;;;;;;;51.00;25.40;;;2.00;99.90;;;;;;4981805;28;38473;-77
2022/12/04 13:04:24;;;;;;;56.23;27.40;;;2.00;99.90;;;;;;4997046;28;47096;-79
2022/12/04 13:07:17;;;;;;;52.17;25.87;;;2.10;99.90;;;;;;4989120;28;48720;-77
2022/12/04 13:09:49;;;;;;;;;;;2.00;99.90;;;;;;4983455;28;48503;-77
2022/12/04 13:12:18;;;;;;;51.63;26.10;;;2.00;99.90;;;;;;4985123;28;39102;-77
2022/12/04 13:14:44;;;;;;;49.60;26.13;;;2.00;99.90;;;;;;4980558;28;37613;-79
2022/12/04 13:17:22;;;;;;;58.67;26.07;;;2.00;99.90;;;;;;4983958;28;38456;-78